createdAt,value
2023-04-29T00:00:06.954Z,10.67
2023-04-29T00:02:34.074Z,10.70
2023-04-29T00:05:01.532Z,10.59
2023-04-29T00:07:28.648Z,10.55
2023-04-29T00:09:55.386Z,10.62
2023-04-29T00:12:22.152Z,10.42
2023-04-29T00:14:48.888Z,10.58
2023-04-29T00:17:16.345Z,10.48
2023-04-29T00:19:43.763Z,10.50
2023-04-29T00:22:10.501Z,10.71
2023-04-29T00:24:37.264Z,10.66
2023-04-29T00:27:04.080Z,10.47
2023-04-29T00:29:30.867Z,10.35
2023-04-29T00:31:57.920Z,10.37
2023-04-29T00:34:24.796Z,10.30
2023-04-29T00:36:51.521Z,10.26
2023-04-29T00:39:19.336Z,10.28
2023-04-29T00:41:46.561Z,10.30
2023-04-29T00:44:13.347Z,10.26
2023-04-29T00:46:40.356Z,10.25
2023-04-29T00:49:08.779Z,10.37
2023-04-29T00:51:37.217Z,10.43
2023-04-29T00:54:05.297Z,10.50
2023-04-29T00:56:34.246Z,10.43
2023-04-29T00:59:02.777Z,10.57
2023-04-29T01:01:32.829Z,10.54
2023-04-29T01:04:00.823Z,10.61
2023-04-29T01:06:48.142Z,10.56
2023-04-29T01:09:18.021Z,10.52
2023-04-29T01:12:06.786Z,10.60
2023-04-29T01:14:37.320Z,10.76
2023-04-29T01:17:10.260Z,10.86
2023-04-29T01:19:52.954Z,10.78
2023-04-29T01:22:21.935Z,10.70
2023-04-29T01:24:49.839Z,10.70
2023-04-29T01:27:42.780Z,10.75
2023-04-29T01:30:27.284Z,10.66
2023-04-29T01:33:03.598Z,10.64
2023-04-29T01:35:41.241Z,10.60
2023-04-29T01:38:17.057Z,10.68
2023-04-29T01:40:56.965Z,10.67
2023-04-29T01:43:28.653Z,10.72
2023-04-29T01:45:57.461Z,10.63
2023-04-29T01:48:24.823Z,10.79
2023-04-29T01:50:51.629Z,10.73
2023-04-29T01:53:18.332Z,10.74
2023-04-29T01:55:45.130Z,10.70
2023-04-29T01:58:11.884Z,10.65
2023-04-29T02:00:39.040Z,10.59
2023-04-29T02:03:05.918Z,10.68
2023-04-29T02:05:34.524Z,10.58
2023-04-29T02:08:01.549Z,10.56
2023-04-29T02:10:28.505Z,10.39
2023-04-29T02:12:55.208Z,10.36
2023-04-29T02:15:22.015Z,10.23
2023-04-29T02:17:48.747Z,10.19
2023-04-29T02:20:16.259Z,10.18
2023-04-29T02:22:42.923Z,10.06
2023-04-29T02:25:10.085Z,9.94
2023-04-29T02:27:36.866Z,9.96
2023-04-29T02:30:05.051Z,9.86
2023-04-29T02:32:32.058Z,9.83
2023-04-29T02:34:58.806Z,9.76
2023-04-29T02:37:25.552Z,9.84
2023-04-29T02:39:52.920Z,9.71
2023-04-29T02:42:20.494Z,9.76
2023-04-29T02:44:47.208Z,9.66
2023-04-29T02:47:14.101Z,9.72
2023-04-29T02:49:41.023Z,9.67
2023-04-29T02:52:07.774Z,9.72
2023-04-29T02:54:34.547Z,9.64
2023-04-29T02:57:01.277Z,9.53
2023-04-29T02:59:28.003Z,9.54
2023-04-29T03:01:54.814Z,9.59
2023-04-29T03:04:21.731Z,9.56
2023-04-29T03:06:49.349Z,9.49
2023-04-29T03:09:16.008Z,9.47
2023-04-29T03:11:42.756Z,9.29
2023-04-29T03:14:09.473Z,9.40
2023-04-29T03:16:36.319Z,9.40
2023-04-29T03:19:03.205Z,9.33
2023-04-29T03:21:30.014Z,9.27
2023-04-29T03:23:56.808Z,9.21
2023-04-29T03:26:25.079Z,9.28
2023-04-29T03:28:52.353Z,9.33
2023-04-29T03:31:21.178Z,9.23
2023-04-29T03:33:48.088Z,9.26
2023-04-29T03:36:15.553Z,9.24
2023-04-29T03:38:42.400Z,9.08
2023-04-29T03:41:09.190Z,9.05
2023-04-29T03:43:36.009Z,9.20
2023-04-29T03:46:02.762Z,9.15
2023-04-29T03:48:29.785Z,9.02
2023-04-29T03:50:56.524Z,8.95
2023-04-29T03:53:23.510Z,9.03
2023-04-29T03:55:50.225Z,9.05
2023-04-29T03:58:17.008Z,8.90
2023-04-29T04:00:43.733Z,8.92
2023-04-29T04:03:10.558Z,8.98
2023-04-29T04:05:37.320Z,8.89
2023-04-29T04:08:04.316Z,8.91
2023-04-29T04:10:31.121Z,8.95
2023-04-29T04:12:57.909Z,9.06
2023-04-29T04:15:24.796Z,9.09
2023-04-29T04:17:51.592Z,9.10
2023-04-29T04:20:18.300Z,9.16
2023-04-29T04:22:45.055Z,9.15
2023-04-29T04:25:11.895Z,9.16
2023-04-29T04:27:38.721Z,9.18
2023-04-29T04:30:06.189Z,9.31
2023-04-29T04:32:33.103Z,9.37
2023-04-29T04:34:59.861Z,9.36
2023-04-29T04:37:26.551Z,9.48
2023-04-29T04:39:53.641Z,9.55
2023-04-29T04:42:20.610Z,9.75
2023-04-29T04:44:47.343Z,9.77
2023-04-29T04:47:13.999Z,9.95
2023-04-29T04:49:40.719Z,10.09
2023-04-29T04:52:07.662Z,10.11
2023-04-29T04:54:35.242Z,10.05
2023-04-29T04:57:05.416Z,10.19
2023-04-29T04:59:32.334Z,10.39
2023-04-29T05:01:59.094Z,10.27
2023-04-29T05:04:25.949Z,10.27
2023-04-29T05:06:52.728Z,10.25
2023-04-29T05:09:19.467Z,10.28
2023-04-29T05:11:46.631Z,10.39
2023-04-29T05:14:13.392Z,10.34
2023-04-29T05:16:40.301Z,10.07
2023-04-29T05:19:07.090Z,10.34
2023-04-29T05:21:33.747Z,10.44
2023-04-29T05:24:00.539Z,10.32
2023-04-29T05:26:27.373Z,10.37
2023-04-29T05:28:55.507Z,10.56
2023-04-29T05:31:22.346Z,10.69
2023-04-29T05:33:49.202Z,10.84
2023-04-29T05:36:15.892Z,10.93
2023-04-29T05:38:45.454Z,10.96
2023-04-29T05:41:12.314Z,10.98
2023-04-29T05:43:39.108Z,11.00
2023-04-29T05:46:06.580Z,10.97
2023-04-29T05:48:33.442Z,11.17
2023-04-29T05:51:00.211Z,11.11
2023-04-29T05:53:26.962Z,11.17
2023-04-29T05:55:53.732Z,11.40
2023-04-29T05:58:20.572Z,11.52
2023-04-29T06:00:49.528Z,11.82
2023-04-29T06:03:17.087Z,11.94
2023-04-29T06:05:44.401Z,11.98
2023-04-29T06:08:11.595Z,11.96
2023-04-29T06:10:38.649Z,12.28
2023-04-29T06:13:05.454Z,12.30
2023-04-29T06:15:32.427Z,12.07
2023-04-29T06:17:59.282Z,11.88
2023-04-29T06:20:25.971Z,11.78
2023-04-29T06:22:52.704Z,11.81
2023-04-29T06:25:19.389Z,11.76
2023-04-29T06:27:46.082Z,11.70
2023-04-29T06:30:13.407Z,11.71
2023-04-29T06:32:41.016Z,11.76
2023-04-29T06:35:08.115Z,11.88
2023-04-29T06:37:37.064Z,12.09
2023-04-29T06:40:05.004Z,12.20
2023-04-29T06:42:31.727Z,12.18
2023-04-29T06:44:58.485Z,12.09
2023-04-29T06:47:25.336Z,12.29
2023-04-29T06:49:53.300Z,12.31
2023-04-29T06:52:20.297Z,12.55
2023-04-29T06:54:47.056Z,12.52
2023-04-29T06:57:13.829Z,12.74
2023-04-29T06:59:40.535Z,12.56
2023-04-29T07:02:07.276Z,12.68
2023-04-29T07:04:34.438Z,12.85
2023-04-29T07:07:01.225Z,13.01
2023-04-29T07:09:28.162Z,13.13
2023-04-29T07:11:55.188Z,12.99
2023-04-29T07:14:24.814Z,13.17
2023-04-29T07:16:55.511Z,13.26
2023-04-29T07:19:22.824Z,13.20
2023-04-29T07:21:49.581Z,13.20
2023-04-29T07:24:16.392Z,13.58
2023-04-29T07:26:45.271Z,13.84
2023-04-29T07:29:12.042Z,13.83
2023-04-29T07:31:38.832Z,13.91
2023-04-29T07:34:06.219Z,13.90
2023-04-29T07:36:33.265Z,13.92
2023-04-29T07:39:00.066Z,14.26
2023-04-29T07:41:27.681Z,14.16
2023-04-29T07:43:54.404Z,14.21
2023-04-29T07:46:21.335Z,14.03
2023-04-29T07:48:49.006Z,14.04
2023-04-29T07:51:15.970Z,13.78
2023-04-29T07:53:42.766Z,13.68
2023-04-29T07:56:09.673Z,13.93
2023-04-29T07:58:36.626Z,13.96
2023-04-29T08:01:10.525Z,13.83
2023-04-29T08:03:39.984Z,13.88
2023-04-29T08:06:12.383Z,14.06
2023-04-29T08:08:39.346Z,14.41
2023-04-29T08:11:06.750Z,14.30
2023-04-29T08:13:33.600Z,14.34
2023-04-29T08:16:02.482Z,14.65
2023-04-29T08:18:29.344Z,14.87
2023-04-29T08:21:22.878Z,14.98
2023-04-29T08:23:49.762Z,14.87
2023-04-29T08:26:16.514Z,15.10
2023-04-29T08:28:45.459Z,15.43
2023-04-29T08:31:23.222Z,15.71
2023-04-29T08:34:04.251Z,16.13
2023-04-29T08:36:42.339Z,16.48
2023-04-29T08:39:10.106Z,16.33
2023-04-29T08:41:37.768Z,16.46
2023-04-29T08:44:17.290Z,16.63
2023-04-29T08:46:46.632Z,17.01
2023-04-29T08:49:13.536Z,16.81
2023-04-29T08:51:40.290Z,16.75
2023-04-29T08:54:07.774Z,17.17
2023-04-29T08:56:34.823Z,17.27
2023-04-29T08:59:05.500Z,17.57
2023-04-29T09:01:33.407Z,17.45
2023-04-29T09:04:30.221Z,16.97
2023-04-29T09:07:09.565Z,16.83
2023-04-29T09:09:36.968Z,16.19
2023-04-29T09:12:03.887Z,15.86
2023-04-29T09:14:34.456Z,16.44
2023-04-29T09:17:01.294Z,16.42
2023-04-29T09:19:33.809Z,16.75
2023-04-29T09:22:02.517Z,16.43
2023-04-29T09:24:31.239Z,16.54
2023-04-29T09:26:59.117Z,16.42
2023-04-29T09:29:25.977Z,16.86
2023-04-29T09:31:56.334Z,17.40
2023-04-29T09:34:43.325Z,17.63
2023-04-29T09:37:42.193Z,16.79
2023-04-29T09:40:30.940Z,16.81
2023-04-29T09:43:01.175Z,17.03
2023-04-29T09:45:39.155Z,17.42
2023-04-29T09:48:07.542Z,17.95
2023-04-29T09:50:37.291Z,17.66
2023-04-29T09:53:04.690Z,17.82
2023-04-29T09:55:32.128Z,17.89
2023-04-29T09:57:58.880Z,17.01
2023-04-29T10:00:29.806Z,17.37
2023-04-29T10:02:59.750Z,16.85
2023-04-29T10:05:30.301Z,17.42
2023-04-29T10:07:59.138Z,17.25
2023-04-29T10:10:29.558Z,17.30
2023-04-29T10:13:01.100Z,16.30
2023-04-29T10:15:44.183Z,16.13
2023-04-29T10:18:21.400Z,15.97
2023-04-29T10:20:52.794Z,16.05
2023-04-29T10:23:21.617Z,15.67
2023-04-29T10:25:50.598Z,16.12
2023-04-29T10:28:19.645Z,16.25
2023-04-29T10:31:03.729Z,16.70
2023-04-29T10:33:35.420Z,17.09
2023-04-29T10:36:03.942Z,17.39
2023-04-29T10:38:53.390Z,17.43
2023-04-29T10:41:25.770Z,17.76
2023-04-29T10:43:53.260Z,18.74
2023-04-29T10:46:30.997Z,19.05
2023-04-29T10:49:01.747Z,19.60
2023-04-29T10:51:42.158Z,19.97
2023-04-29T10:54:14.812Z,19.72
2023-04-29T10:56:47.897Z,19.63
2023-04-29T10:59:17.318Z,19.59
2023-04-29T11:01:53.346Z,20.42
2023-04-29T11:04:22.452Z,19.55
2023-04-29T11:06:56.653Z,19.34
2023-04-29T11:09:28.078Z,19.78
2023-04-29T11:12:06.327Z,19.74
2023-04-29T11:14:42.088Z,20.19
2023-04-29T11:17:18.088Z,20.29
2023-04-29T11:19:50.665Z,20.81
2023-04-29T11:22:23.413Z,21.42
2023-04-29T11:24:57.734Z,21.27
2023-04-29T11:27:33.670Z,21.28
2023-04-29T11:30:03.209Z,20.90
2023-04-29T11:32:31.281Z,20.57
2023-04-29T11:35:18.692Z,20.27
2023-04-29T11:37:46.782Z,19.98
2023-04-29T11:40:15.008Z,20.17
2023-04-29T11:42:44.727Z,20.80
2023-04-29T11:45:12.500Z,20.72
2023-04-29T11:47:43.677Z,21.03
2023-04-29T11:50:11.124Z,20.40
2023-04-29T11:52:39.609Z,20.95
2023-04-29T11:55:09.301Z,21.51
2023-04-29T11:57:36.682Z,22.23
2023-04-29T12:00:06.107Z,22.35
2023-04-29T12:02:35.384Z,21.42
2023-04-29T12:05:14.610Z,21.15
2023-04-29T12:07:41.632Z,21.41
2023-04-29T12:10:11.167Z,21.96
2023-04-29T12:12:44.107Z,22.63
2023-04-29T12:15:11.459Z,23.31
2023-04-29T12:17:39.089Z,23.45
2023-04-29T12:20:07.826Z,23.78
2023-04-29T12:22:38.409Z,24.35
2023-04-29T12:25:06.162Z,24.54
2023-04-29T12:27:34.588Z,24.99
2023-04-29T12:30:01.572Z,23.88
2023-04-29T12:32:29.735Z,23.39
2023-04-29T12:34:56.793Z,23.81
2023-04-29T12:37:23.840Z,23.18
2023-04-29T12:39:51.075Z,23.81
2023-04-29T12:42:18.273Z,22.87
2023-04-29T12:44:47.699Z,23.41
2023-04-29T12:47:14.690Z,22.88
2023-04-29T12:49:43.392Z,22.57
2023-04-29T12:52:10.777Z,23.39
2023-04-29T12:54:43.982Z,23.70
2023-04-29T12:57:12.201Z,24.24
2023-04-29T12:59:39.873Z,23.97
2023-04-29T13:02:06.873Z,23.92
2023-04-29T13:04:33.759Z,23.45
2023-04-29T13:07:00.925Z,23.00
2023-04-29T13:09:27.846Z,23.09
2023-04-29T13:11:54.701Z,23.69
2023-04-29T13:14:21.951Z,23.80
2023-04-29T13:16:48.846Z,24.61
2023-04-29T13:19:32.141Z,24.34
2023-04-29T13:22:02.388Z,23.71
2023-04-29T13:24:29.142Z,24.54
2023-04-29T13:26:56.132Z,24.60
2023-04-29T13:29:23.783Z,24.07
2023-04-29T13:31:51.152Z,23.73
2023-04-29T13:34:18.056Z,23.84
2023-04-29T13:36:44.885Z,24.25
2023-04-29T13:39:11.804Z,23.10
2023-04-29T13:41:42.227Z,24.09
2023-04-29T13:44:24.026Z,24.29
2023-04-29T13:46:57.920Z,24.08
2023-04-29T13:49:55.800Z,24.65
2023-04-29T13:53:01.567Z,24.77
2023-04-29T13:55:49.312Z,25.39
2023-04-29T14:00:38.095Z,23.59
2023-04-29T14:03:03.633Z,24.04
2023-04-29T14:05:30.589Z,24.05
2023-04-29T14:07:57.536Z,24.60
2023-04-29T14:10:24.331Z,24.11
2023-04-29T14:12:51.052Z,24.00
2023-04-29T14:15:17.899Z,23.60
2023-04-29T14:17:44.838Z,24.25
2023-04-29T14:20:12.059Z,24.15
2023-04-29T14:22:38.786Z,22.79
2023-04-29T14:25:06.416Z,22.23
2023-04-29T14:27:34.837Z,21.79
2023-04-29T14:30:01.624Z,21.98
2023-04-29T14:34:55.414Z,21.38
2023-04-29T14:37:22.498Z,20.77
2023-04-29T14:39:49.585Z,20.69
2023-04-29T14:42:18.749Z,20.59
2023-04-29T14:44:45.500Z,20.36
2023-04-29T14:47:12.452Z,19.40
2023-04-29T14:49:39.375Z,18.74
2023-04-29T14:52:06.285Z,19.06
2023-04-29T14:54:32.971Z,19.13
2023-04-29T14:56:59.700Z,19.79
2023-04-29T14:59:28.632Z,20.63
2023-04-29T15:01:55.374Z,21.19
2023-04-29T15:04:22.924Z,21.49
2023-04-29T15:06:50.423Z,21.11
2023-04-29T15:09:17.601Z,21.06
2023-04-29T15:11:44.370Z,21.29
2023-04-29T15:14:11.273Z,21.56
2023-04-29T15:16:38.100Z,21.05
2023-04-29T15:19:04.891Z,21.09
2023-04-29T15:21:32.474Z,21.31
2023-04-29T15:23:59.222Z,21.25
2023-04-29T15:26:26.879Z,20.91
2023-04-29T15:28:53.640Z,21.08
2023-04-29T15:31:22.241Z,21.00
2023-04-29T15:33:54.196Z,21.23
2023-04-29T15:36:28.645Z,21.27
2023-04-29T15:38:55.667Z,21.57
2023-04-29T15:41:22.838Z,21.59
2023-04-29T15:43:52.367Z,21.72
2023-04-29T15:46:19.593Z,21.44
2023-04-29T15:48:46.457Z,21.15
2023-04-29T15:51:15.196Z,21.31
2023-04-29T15:53:43.821Z,21.32
2023-04-29T15:56:11.200Z,21.09
2023-04-29T15:58:38.063Z,20.77
2023-04-29T16:01:05.088Z,20.87
2023-04-29T16:03:31.949Z,20.39
2023-04-29T16:05:58.799Z,20.27
2023-04-29T16:08:25.636Z,19.92
2023-04-29T16:10:55.818Z,19.89
2023-04-29T16:13:34.924Z,19.93
2023-04-29T16:16:05.439Z,20.02
2023-04-29T16:18:33.170Z,19.83
2023-04-29T16:21:02.474Z,19.91
2023-04-29T16:23:29.677Z,20.20
2023-04-29T16:25:56.773Z,19.89
2023-04-29T16:28:24.417Z,19.70
2023-04-29T16:30:51.410Z,19.75
2023-04-29T16:33:21.560Z,19.84
2023-04-29T16:35:58.454Z,19.64
2023-04-29T16:38:28.107Z,19.50
2023-04-29T16:40:57.980Z,19.65
2023-04-29T16:43:24.814Z,18.92
2023-04-29T16:45:52.356Z,18.66
2023-04-29T16:48:23.912Z,18.43
2023-04-29T16:50:51.103Z,18.31
2023-04-29T16:53:18.201Z,17.94
2023-04-29T16:55:47.355Z,18.15
2023-04-29T16:58:14.190Z,17.87
2023-04-29T17:00:53.721Z,17.48
2023-04-29T17:03:20.537Z,17.48
2023-04-29T17:05:48.863Z,16.82
2023-04-29T17:08:20.370Z,16.66
2023-04-29T17:10:50.160Z,16.09
2023-04-29T17:13:17.974Z,16.67
2023-04-29T17:15:44.929Z,16.21
2023-04-29T17:18:12.248Z,15.89
2023-04-29T17:20:39.672Z,16.22
2023-04-29T17:23:09.565Z,16.03
2023-04-29T17:25:37.944Z,15.91
2023-04-29T17:28:06.481Z,15.82
2023-04-29T17:30:36.355Z,15.83
2023-04-29T17:33:06.014Z,15.90
2023-04-29T17:35:42.923Z,15.65
2023-04-29T17:38:10.054Z,14.94
2023-04-29T17:40:40.365Z,15.07
2023-04-29T17:43:10.185Z,15.13
2023-04-29T17:45:39.961Z,15.13
2023-04-29T17:48:06.932Z,14.96
2023-04-29T17:50:34.500Z,14.58
2023-04-29T17:53:01.939Z,14.67
2023-04-29T17:55:39.406Z,14.52
2023-04-29T17:58:12.779Z,14.39
2023-04-29T18:00:42.194Z,14.41
2023-04-29T18:03:12.812Z,14.37
2023-04-29T18:05:40.312Z,14.77
2023-04-29T18:08:07.745Z,14.46
2023-04-29T18:10:34.968Z,14.75
2023-04-29T18:13:03.475Z,14.77
2023-04-29T18:15:30.534Z,14.85
2023-04-29T18:17:57.901Z,14.60
2023-04-29T18:20:25.118Z,14.67
2023-04-29T18:22:52.097Z,14.95
2023-04-29T18:25:18.844Z,14.90
2023-04-29T18:27:45.573Z,14.88
2023-04-29T18:30:12.658Z,14.79
2023-04-29T18:32:39.855Z,14.44
2023-04-29T18:35:06.975Z,14.47
2023-04-29T18:37:33.794Z,14.34
2023-04-29T18:40:01.899Z,13.94
2023-04-29T18:42:29.538Z,13.58
2023-04-29T18:44:56.609Z,13.85
2023-04-29T18:47:23.767Z,13.78
2023-04-29T18:49:51.056Z,13.69
2023-04-29T18:52:18.265Z,13.47
2023-04-29T18:54:45.723Z,13.32
2023-04-29T18:57:12.672Z,13.41
2023-04-29T18:59:39.553Z,13.45
2023-04-29T19:02:06.677Z,13.40
2023-04-29T19:04:34.498Z,13.36
2023-04-29T19:07:02.086Z,13.27
2023-04-29T19:09:32.375Z,13.40
2023-04-29T19:12:00.794Z,13.22
2023-04-29T19:14:27.656Z,13.33
2023-04-29T19:16:55.444Z,13.41
2023-04-29T19:19:23.949Z,13.24
2023-04-29T19:21:51.011Z,13.05
2023-04-29T19:24:18.235Z,13.05
2023-04-29T19:26:45.469Z,13.15
2023-04-29T19:29:12.521Z,12.94
2023-04-29T19:31:39.668Z,13.09
2023-04-29T19:34:06.719Z,12.88
2023-04-29T19:36:33.695Z,12.98
2023-04-29T19:39:02.874Z,12.74
2023-04-29T19:41:30.060Z,12.60
2023-04-29T19:43:56.938Z,12.51
2023-04-29T19:46:23.962Z,12.45
2023-04-29T19:48:52.509Z,12.51
2023-04-29T19:51:19.755Z,12.58
2023-04-29T19:53:46.706Z,12.65
2023-04-29T19:56:13.474Z,12.91
2023-04-29T19:58:40.999Z,12.72
2023-04-29T20:01:07.823Z,12.54
2023-04-29T20:03:36.300Z,12.76
2023-04-29T20:06:03.192Z,12.64
2023-04-29T20:08:29.960Z,12.53
2023-04-29T20:10:56.816Z,12.71
2023-04-29T20:13:23.478Z,12.72
2023-04-29T20:15:50.435Z,12.48
2023-04-29T20:18:18.184Z,12.28
2023-04-29T20:20:45.961Z,12.36
2023-04-29T20:23:13.470Z,12.38
2023-04-29T20:25:40.750Z,12.41
2023-04-29T20:28:09.513Z,12.20
2023-04-29T20:30:36.987Z,12.45
2023-04-29T20:33:04.458Z,12.24
2023-04-29T20:35:32.852Z,12.21
2023-04-29T20:38:00.176Z,12.13
2023-04-29T20:40:27.059Z,12.21
2023-04-29T20:42:53.914Z,12.16
2023-04-29T20:45:20.663Z,11.87
2023-04-29T20:47:47.466Z,12.22
2023-04-29T20:50:14.225Z,12.05
2023-04-29T20:52:41.816Z,12.14
2023-04-29T20:55:09.630Z,12.12
2023-04-29T20:57:36.525Z,12.22
2023-04-29T21:00:05.757Z,12.23
2023-04-29T21:02:32.509Z,12.18
2023-04-29T21:05:00.218Z,12.09
2023-04-29T21:07:27.198Z,12.04
2023-04-29T21:09:54.514Z,12.23
2023-04-29T21:12:21.516Z,12.28
2023-04-29T21:14:48.237Z,12.20
2023-04-29T21:17:15.007Z,12.15
2023-04-29T21:19:42.193Z,12.11
2023-04-29T21:22:09.010Z,12.01
2023-04-29T21:24:35.802Z,12.08
2023-04-29T21:27:02.934Z,12.05
2023-04-29T21:29:29.688Z,12.04
2023-04-29T21:31:56.425Z,12.28
2023-04-29T21:34:23.195Z,12.39
2023-04-29T21:36:49.973Z,12.04
2023-04-29T21:39:16.756Z,12.09
2023-04-29T21:41:43.765Z,12.03
2023-04-29T21:44:11.425Z,12.06
2023-04-29T21:46:38.702Z,11.97
2023-04-29T21:49:05.698Z,11.96
2023-04-29T21:51:34.350Z,12.05
2023-04-29T21:54:01.264Z,12.07
2023-04-29T21:56:28.018Z,12.13
2023-04-29T21:58:54.809Z,11.94
2023-04-29T22:01:40.526Z,11.85
2023-04-29T22:04:07.609Z,11.86
2023-04-29T22:06:34.727Z,12.14
2023-04-29T22:09:01.845Z,12.22
2023-04-29T22:11:29.227Z,12.13
2023-04-29T22:13:56.156Z,11.89
2023-04-29T22:16:26.199Z,11.83
2023-04-29T22:18:53.138Z,11.91
2023-04-29T22:21:19.952Z,11.89
2023-04-29T22:23:46.744Z,11.89
2023-04-29T22:26:13.504Z,11.98
2023-04-29T22:28:40.231Z,11.99
2023-04-29T22:31:06.956Z,12.05
2023-04-29T22:33:35.211Z,11.90
2023-04-29T22:36:02.454Z,11.82
2023-04-29T22:38:29.751Z,11.59
2023-04-29T22:40:56.594Z,11.77
2023-04-29T22:43:23.319Z,11.65
2023-04-29T22:45:53.496Z,11.80
2023-04-29T22:48:20.882Z,11.94
2023-04-29T22:50:55.609Z,12.01
2023-04-29T22:53:23.144Z,12.00
2023-04-29T22:55:53.969Z,12.00
2023-04-29T22:58:21.979Z,11.90
2023-04-29T23:03:33.433Z,11.62
2023-04-29T23:06:01.214Z,11.64
2023-04-29T23:08:28.432Z,11.46
2023-04-29T23:10:55.186Z,11.39
2023-04-29T23:13:21.918Z,11.41
2023-04-29T23:15:48.706Z,11.57
2023-04-29T23:18:15.651Z,11.34
2023-04-29T23:20:46.110Z,11.25
2023-04-29T23:23:12.815Z,11.24
2023-04-29T23:25:39.528Z,11.01
2023-04-29T23:28:06.302Z,11.02
2023-04-29T23:30:33.283Z,11.19
2023-04-29T23:33:00.112Z,11.08
2023-04-29T23:35:27.381Z,11.18
2023-04-29T23:37:54.161Z,11.15
2023-04-29T23:40:20.888Z,11.09
2023-04-29T23:42:47.652Z,10.96
2023-04-29T23:45:14.382Z,10.84
2023-04-29T23:47:41.438Z,10.89
2023-04-29T23:50:08.797Z,10.72
2023-04-29T23:52:35.629Z,10.76
2023-04-29T23:55:03.207Z,10.62
2023-04-29T23:57:29.944Z,10.68
2023-04-29T23:59:56.957Z,10.49
